Oceanis — SVBC9 — position and weather

sailwx.info

Track history (hours):
 
Tides and Currents Weather Stations Pressure Air Temp Water Temp Dewpoint Dewpoint Depression Visibility Wind Speed Wind Dir Waves Ship Positions

Oceanis

Last reported at 2017-Dec-31 06:33 UTC. Time now 2018-Jan-23 23:41 UTC.
Position N 01°19' E 103°18'.
Warning: this ship's position is 23 days out of date.

Length 330 m; draft 11.1 m.

Type: Tanker. MMSI: 241089000.

Date/timePositionNaut miles runAvg speedWind from/ knotsBaromVisibWave heightAir tempDewpointWater temp
2017-Dec-31 06:33N 01°19' E 103°18'114.4
2017-Dec-31 06:29N 01°18' E 103°18'713.9
2017-Dec-31 05:57N 01°14' E 103°24'613.5
2017-Dec-31 05:30N 01°12' E 103°30'612.8
2017-Dec-31 05:00N 01°11' E 103°36'612.8
2017-Dec-31 04:31N 01°09' E 103°42'510.4
2017-Dec-31 04:01N 01°10' E 103°48'612.3
2017-Dec-31 03:31N 01°13' E 103°53'5 9.2
2017-Dec-31 02:59N 01°15' E 103°57'2 1.6
2017-Dec-31 01:43N 01°16' E 103°56'0 0.0
2017-Dec-31 00:01N 01°16' E 103°56'0 0.0
2017-Dec-30 23:52N 01°16' E 103°56'0 0.0
2017-Dec-30 22:01N 01°16' E 103°56'0 0.0
2017-Dec-30 21:31N 01°16' E 103°56'0 0.1
2017-Dec-30 20:28N 01°16' E 103°56'0 0.0
2017-Dec-30 18:58N 01°16' E 103°56'0 0.0
2017-Dec-30 15:10N 01°16' E 103°56'0 0.0
2017-Dec-30 14:55N 01°16' E 103°56'0 0.0
2017-Dec-30 14:28N 01°16' E 103°56'0 0.0
2017-Dec-30 13:22N 01°16' E 103°56'0 0.0
2017-Dec-30 11:37N 01°16' E 103°56'0 0.0
2017-Dec-30 07:58N 01°16' E 103°56'0 0.2
2017-Dec-30 07:07N 01°16' E 103°56'0 0.0
2017-Dec-30 06:52N 01°16' E 103°56'0 0.1
2017-Dec-30 06:10N 01°16' E 103°56'0 0.3
2017-Dec-30 05:58N 01°16' E 103°56'0 0.1
2017-Dec-30 05:22N 01°16' E 103°56'0 0.0
2017-Dec-30 03:37N 01°16' E 103°56'0 0.3
2017-Dec-30 03:28N 01°16' E 103°56'0 0.2
2017-Dec-30 03:00N 01°16' E 103°56'2 3.4
2017-Dec-30 02:31N 01°15' E 103°57'2 4.7
2017-Dec-30 02:01N 01°16' E 103°60'2 3.7
2017-Dec-30 01:30N 01°16' E 104°02'3 6.8
2017-Dec-30 00:59N 01°16' E 104°05'4 8.4
2017-Dec-30 00:30N 01°16' E 104°09'  
2017-Dec-24 11:25N 22°00' E 121°15'1811.5
2017-Dec-24 09:51N 22°15' E 121°26'6211.7
2017-Dec-24 04:34N 23°12' E 121°54'111.6
2017-Dec-24 04:26N 23°13' E 121°55'2511.5
2017-Dec-24 02:18N 23°35' E 122°06'410.9
2017-Dec-24 01:56N 23°39' E 122°08'811.3
2017-Dec-24 01:15N 23°46' E 122°11'310.9
2017-Dec-24 01:00N 23°48' E 122°12'611.2
2017-Dec-24 00:30N 23°53' E 122°15'611.6
2017-Dec-24 00:00N 23°59' E 122°17'611.4
2017-Dec-23 23:30N 24°04' E 122°20'611.5
2017-Dec-23 23:00N 24°09' E 122°23'611.8
2017-Dec-23 22:30N 24°14' E 122°25'611.6
2017-Dec-23 22:00N 24°20' E 122°28'611.5
2017-Dec-23 21:30N 24°25' E 122°31'611.3
2017-Dec-23 21:00N 24°30' E 122°33'611.2
2017-Dec-23 20:30N 24°35' E 122°36'611.2
2017-Dec-23 20:00N 24°40' E 122°38'611.3
2017-Dec-23 19:30N 24°45' E 122°41'611.8
2017-Dec-23 19:00N 24°51' E 122°44'611.9
2017-Dec-23 18:30N 24°56' E 122°46'612.3
2017-Dec-23 18:00N 25°02' E 122°48'612.0
2017-Dec-23 17:30N 25°08' E 122°50'612.1
2017-Dec-23 17:00N 25°13' E 122°52'611.9
2017-Dec-23 16:30N 25°19' E 122°54'611.8
2017-Dec-23 16:00N 25°25' E 122°56'  
Track history (hours):
 
Tides and Currents Weather Stations Pressure Air Temp Water Temp Dewpoint Dewpoint Depression Visibility Wind Speed Wind Dir Waves Ship Positions

Oceanis

Last reported at 2017-Dec-31 06:33 UTC. Time now 2018-Jan-23 23:41 UTC.
Position N 01°19' E 103°18'.
Warning: this ship's position is 23 days out of date.

Length 330 m; draft 11.1 m.

Type: Tanker. MMSI: 241089000.

Date/timePositionNaut miles runAvg speedWind from/ knotsBaromVisibWave heightAir tempDewpointWater temp
2017-Dec-31 06:33N 01°19' E 103°18'114.4
2017-Dec-31 06:29N 01°18' E 103°18'713.9
2017-Dec-31 05:57N 01°14' E 103°24'613.5
2017-Dec-31 05:30N 01°12' E 103°30'612.8
2017-Dec-31 05:00N 01°11' E 103°36'612.8
2017-Dec-31 04:31N 01°09' E 103°42'510.4
2017-Dec-31 04:01N 01°10' E 103°48'612.3
2017-Dec-31 03:31N 01°13' E 103°53'5 9.2
2017-Dec-31 02:59N 01°15' E 103°57'2 1.6
2017-Dec-31 01:43N 01°16' E 103°56'0 0.0
2017-Dec-31 00:01N 01°16' E 103°56'0 0.0
2017-Dec-30 23:52N 01°16' E 103°56'0 0.0
2017-Dec-30 22:01N 01°16' E 103°56'0 0.0
2017-Dec-30 21:31N 01°16' E 103°56'0 0.1
2017-Dec-30 20:28N 01°16' E 103°56'0 0.0
2017-Dec-30 18:58N 01°16' E 103°56'0 0.0
2017-Dec-30 15:10N 01°16' E 103°56'0 0.0
2017-Dec-30 14:55N 01°16' E 103°56'0 0.0
2017-Dec-30 14:28N 01°16' E 103°56'0 0.0
2017-Dec-30 13:22N 01°16' E 103°56'0 0.0
2017-Dec-30 11:37N 01°16' E 103°56'0 0.0
2017-Dec-30 07:58N 01°16' E 103°56'0 0.2
2017-Dec-30 07:07N 01°16' E 103°56'0 0.0
2017-Dec-30 06:52N 01°16' E 103°56'0 0.1
2017-Dec-30 06:10N 01°16' E 103°56'0 0.3
2017-Dec-30 05:58N 01°16' E 103°56'0 0.1
2017-Dec-30 05:22N 01°16' E 103°56'0 0.0
2017-Dec-30 03:37N 01°16' E 103°56'0 0.3
2017-Dec-30 03:28N 01°16' E 103°56'0 0.2
2017-Dec-30 03:00N 01°16' E 103°56'2 3.4
2017-Dec-30 02:31N 01°15' E 103°57'2 4.7
2017-Dec-30 02:01N 01°16' E 103°60'2 3.7
2017-Dec-30 01:30N 01°16' E 104°02'3 6.8
2017-Dec-30 00:59N 01°16' E 104°05'4 8.4
2017-Dec-30 00:30N 01°16' E 104°09'  
2017-Dec-24 11:25N 22°00' E 121°15'1811.5
2017-Dec-24 09:51N 22°15' E 121°26'6211.7
2017-Dec-24 04:34N 23°12' E 121°54'111.6
2017-Dec-24 04:26N 23°13' E 121°55'2511.5
2017-Dec-24 02:18N 23°35' E 122°06'410.9
2017-Dec-24 01:56N 23°39' E 122°08'811.3
2017-Dec-24 01:15N 23°46' E 122°11'310.9
2017-Dec-24 01:00N 23°48' E 122°12'611.2
2017-Dec-24 00:30N 23°53' E 122°15'611.6
2017-Dec-24 00:00N 23°59' E 122°17'611.4
2017-Dec-23 23:30N 24°04' E 122°20'611.5
2017-Dec-23 23:00N 24°09' E 122°23'611.8
2017-Dec-23 22:30N 24°14' E 122°25'611.6
2017-Dec-23 22:00N 24°20' E 122°28'611.5
2017-Dec-23 21:30N 24°25' E 122°31'611.3
2017-Dec-23 21:00N 24°30' E 122°33'611.2
2017-Dec-23 20:30N 24°35' E 122°36'611.2
2017-Dec-23 20:00N 24°40' E 122°38'611.3
2017-Dec-23 19:30N 24°45' E 122°41'611.8
2017-Dec-23 19:00N 24°51' E 122°44'611.9
2017-Dec-23 18:30N 24°56' E 122°46'612.3
2017-Dec-23 18:00N 25°02' E 122°48'612.0
2017-Dec-23 17:30N 25°08' E 122°50'612.1
2017-Dec-23 17:00N 25°13' E 122°52'611.9
2017-Dec-23 16:30N 25°19' E 122°54'611.8
2017-Dec-23 16:00N 25°25' E 122°56'  

Dump ship's entire track history